sensor_id;sensor_type;location;lat;lon;timestamp;pressure;altitude;pressure_sealevel;temperature;humidity
29197;BME280;62796;42.654;23.316;2024-02-16T00:01:01;95176.09;;;6.62;48.67
29197;BME280;62796;42.654;23.316;2024-02-16T00:03:27;95162.94;;;6.66;48.62
29197;BME280;62796;42.654;23.316;2024-02-16T00:05:52;95159.09;;;6.63;48.54
29197;BME280;62796;42.654;23.316;2024-02-16T00:08:18;95165.38;;;6.64;48.60
29197;BME280;62796;42.654;23.316;2024-02-16T00:10:44;95157.50;;;6.53;48.83
29197;BME280;62796;42.654;23.316;2024-02-16T00:13:09;95162.19;;;6.65;48.68
29197;BME280;62796;42.654;23.316;2024-02-16T00:15:35;95168.41;;;6.57;49.01
29197;BME280;62796;42.654;23.316;2024-02-16T00:18:00;95170.25;;;6.60;48.69
29197;BME280;62796;42.654;23.316;2024-02-16T00:20:26;95168.72;;;6.59;48.59
29197;BME280;62796;42.654;23.316;2024-02-16T00:22:52;95154.53;;;6.48;48.92
29197;BME280;62796;42.654;23.316;2024-02-16T00:25:17;95167.41;;;6.51;48.89
29197;BME280;62796;42.654;23.316;2024-02-16T00:27:43;95170.16;;;6.51;49.16
29197;BME280;62796;42.654;23.316;2024-02-16T00:30:09;95170.59;;;6.49;48.99
29197;BME280;62796;42.654;23.316;2024-02-16T00:32:35;95172.84;;;6.42;49.53
29197;BME280;62796;42.654;23.316;2024-02-16T00:35:02;95174.91;;;6.38;49.25
29197;BME280;62796;42.654;23.316;2024-02-16T00:37:28;95169.84;;;6.36;49.31
29197;BME280;62796;42.654;23.316;2024-02-16T00:39:53;95177.78;;;6.34;49.31
29197;BME280;62796;42.654;23.316;2024-02-16T00:42:20;95154.38;;;6.30;48.84
29197;BME280;62796;42.654;23.316;2024-02-16T00:44:46;95161.72;;;6.33;48.86
29197;BME280;62796;42.654;23.316;2024-02-16T00:47:12;95170.41;;;6.31;48.87
29197;BME280;62796;42.654;23.316;2024-02-16T00:49:37;95169.22;;;6.32;48.90
29197;BME280;62796;42.654;23.316;2024-02-16T00:52:03;95168.75;;;6.34;48.89
29197;BME280;62796;42.654;23.316;2024-02-16T00:54:29;95167.75;;;6.40;48.44
29197;BME280;62796;42.654;23.316;2024-02-16T00:56:55;95170.97;;;6.39;48.39
29197;BME280;62796;42.654;23.316;2024-02-16T00:59:20;95166.34;;;6.36;48.14
29197;BME280;62796;42.654;23.316;2024-02-16T01:01:46;95176.69;;;6.32;48.44
29197;BME280;62796;42.654;23.316;2024-02-16T01:04:12;95171.19;;;6.32;48.35
29197;BME280;62796;42.654;23.316;2024-02-16T01:06:37;95170.09;;;6.29;48.46
29197;BME280;62796;42.654;23.316;2024-02-16T01:09:03;95168.13;;;6.30;48.44
29197;BME280;62796;42.654;23.316;2024-02-16T01:11:28;95169.78;;;6.27;48.42
29197;BME280;62796;42.654;23.316;2024-02-16T01:13:54;95175.38;;;6.24;48.77
29197;BME280;62796;42.654;23.316;2024-02-16T01:16:19;95167.13;;;6.24;48.54
29197;BME280;62796;42.654;23.316;2024-02-16T01:18:45;95170.53;;;6.28;48.20
29197;BME280;62796;42.654;23.316;2024-02-16T01:21:11;95155.47;;;6.20;48.24
29197;BME280;62796;42.654;23.316;2024-02-16T01:23:36;95161.94;;;6.26;48.29
29197;BME280;62796;42.654;23.316;2024-02-16T01:26:02;95162.84;;;6.23;48.25
29197;BME280;62796;42.654;23.316;2024-02-16T01:28:27;95161.19;;;6.25;48.13
29197;BME280;62796;42.654;23.316;2024-02-16T01:30:52;95151.16;;;6.19;48.43
29197;BME280;62796;42.654;23.316;2024-02-16T01:33:19;95155.66;;;6.25;48.42
29197;BME280;62796;42.654;23.316;2024-02-16T01:35:44;95145.56;;;6.22;48.27
29197;BME280;62796;42.654;23.316;2024-02-16T01:38:11;95140.16;;;6.19;48.13
29197;BME280;62796;42.654;23.316;2024-02-16T01:40:36;95149.41;;;6.25;48.24
29197;BME280;62796;42.654;23.316;2024-02-16T01:43:02;95153.38;;;6.24;48.22
29197;BME280;62796;42.654;23.316;2024-02-16T01:45:27;95152.16;;;6.25;47.90
29197;BME280;62796;42.654;23.316;2024-02-16T01:47:53;95152.72;;;6.20;48.21
29197;BME280;62796;42.654;23.316;2024-02-16T01:50:20;95149.66;;;6.18;48.37
29197;BME280;62796;42.654;23.316;2024-02-16T01:52:47;95143.47;;;6.13;48.23
29197;BME280;62796;42.654;23.316;2024-02-16T01:55:13;95136.88;;;6.11;48.21
29197;BME280;62796;42.654;23.316;2024-02-16T01:57:40;95152.03;;;6.16;48.43
29197;BME280;62796;42.654;23.316;2024-02-16T02:00:06;95141.28;;;6.08;48.66
29197;BME280;62796;42.654;23.316;2024-02-16T02:02:35;95145.25;;;6.07;48.73
29197;BME280;62796;42.654;23.316;2024-02-16T02:05:01;95139.75;;;6.07;48.49
29197;BME280;62796;42.654;23.316;2024-02-16T02:07:27;95131.41;;;5.98;48.70
29197;BME280;62796;42.654;23.316;2024-02-16T02:09:53;95136.31;;;6.03;48.98
29197;BME280;62796;42.654;23.316;2024-02-16T02:12:18;95146.22;;;6.01;49.16
29197;BME280;62796;42.654;23.316;2024-02-16T02:14:44;95142.72;;;6.00;49.09
29197;BME280;62796;42.654;23.316;2024-02-16T02:17:10;95142.72;;;6.00;49.40
29197;BME280;62796;42.654;23.316;2024-02-16T02:19:35;95136.56;;;5.96;49.46
29197;BME280;62796;42.654;23.316;2024-02-16T02:22:01;95143.06;;;6.02;49.49
29197;BME280;62796;42.654;23.316;2024-02-16T02:24:26;95146.69;;;5.99;49.45
29197;BME280;62796;42.654;23.316;2024-02-16T02:26:52;95145.50;;;5.88;49.03
29197;BME280;62796;42.654;23.316;2024-02-16T02:29:17;95152.06;;;5.90;49.24
29197;BME280;62796;42.654;23.316;2024-02-16T02:31:42;95149.00;;;5.88;49.34
29197;BME280;62796;42.654;23.316;2024-02-16T02:34:09;95148.66;;;5.86;48.91
29197;BME280;62796;42.654;23.316;2024-02-16T02:36:35;95148.31;;;5.84;48.91
29197;BME280;62796;42.654;23.316;2024-02-16T02:39:01;95150.75;;;5.82;49.06
29197;BME280;62796;42.654;23.316;2024-02-16T02:41:26;95146.75;;;5.83;49.13
29197;BME280;62796;42.654;23.316;2024-02-16T02:43:52;95150.75;;;5.82;49.20
29197;BME280;62796;42.654;23.316;2024-02-16T02:46:17;95148.41;;;5.81;49.36
29197;BME280;62796;42.654;23.316;2024-02-16T02:48:44;95153.13;;;5.80;49.26
29197;BME280;62796;42.654;23.316;2024-02-16T02:51:10;95132.25;;;5.70;49.45
29197;BME280;62796;42.654;23.316;2024-02-16T02:53:36;95143.03;;;5.77;49.45
29197;BME280;62796;42.654;23.316;2024-02-16T02:56:02;95137.53;;;5.77;49.45
29197;BME280;62796;42.654;23.316;2024-02-16T02:58:27;95139.84;;;5.66;49.56
29197;BME280;62796;42.654;23.316;2024-02-16T03:00:53;95138.28;;;5.65;49.59
29197;BME280;62796;42.654;23.316;2024-02-16T03:03:19;95135.53;;;5.65;49.38
29197;BME280;62796;42.654;23.316;2024-02-16T03:05:45;95147.22;;;5.69;49.55
29197;BME280;62796;42.654;23.316;2024-02-16T03:08:11;95140.72;;;5.63;49.73
29197;BME280;62796;42.654;23.316;2024-02-16T03:10:36;95145.56;;;5.72;49.54
29197;BME280;62796;42.654;23.316;2024-02-16T03:13:02;95141.72;;;5.69;49.58
29197;BME280;62796;42.654;23.316;2024-02-16T03:15:28;95144.34;;;5.60;49.57
29197;BME280;62796;42.654;23.316;2024-02-16T03:17:57;95144.00;;;5.58;49.41
29197;BME280;62796;42.654;23.316;2024-02-16T03:20:22;95146.63;;;5.62;49.64
29197;BME280;62796;42.654;23.316;2024-02-16T03:22:49;95140.16;;;5.68;49.30
29197;BME280;62796;42.654;23.316;2024-02-16T03:25:14;95139.50;;;5.64;49.32
29197;BME280;62796;42.654;23.316;2024-02-16T03:27:40;95143.66;;;5.56;49.46
29197;BME280;62796;42.654;23.316;2024-02-16T03:30:07;95140.28;;;5.52;49.85
29197;BME280;62796;42.654;23.316;2024-02-16T03:32:33;95143.91;;;5.49;49.76
29197;BME280;62796;42.654;23.316;2024-02-16T03:34:59;95150.25;;;5.46;50.04
29197;BME280;62796;42.654;23.316;2024-02-16T03:37:24;95151.47;;;5.45;49.93
29197;BME280;62796;42.654;23.316;2024-02-16T03:39:50;95150.25;;;5.46;50.05
29197;BME280;62796;42.654;23.316;2024-02-16T03:42:16;95148.84;;;5.54;49.78
29197;BME280;62796;42.654;23.316;2024-02-16T03:44:43;95152.47;;;5.51;49.73
29197;BME280;62796;42.654;23.316;2024-02-16T03:47:09;95147.16;;;5.44;49.80
29197;BME280;62796;42.654;23.316;2024-02-16T03:49:34;95149.69;;;5.38;49.98
29197;BME280;62796;42.654;23.316;2024-02-16T03:52:00;95153.84;;;5.30;50.38
29197;BME280;62796;42.654;23.316;2024-02-16T03:54:25;95145.16;;;5.32;50.12
29197;BME280;62796;42.654;23.316;2024-02-16T03:56:54;95155.63;;;5.37;50.10
29197;BME280;62796;42.654;23.316;2024-02-16T03:59:19;95154.97;;;5.33;50.41
29197;BME280;62796;42.654;23.316;2024-02-16T04:01:45;95151.53;;;5.29;50.37
29197;BME280;62796;42.654;23.316;2024-02-16T04:04:11;95146.91;;;5.26;50.40
29197;BME280;62796;42.654;23.316;2024-02-16T04:06:37;95147.78;;;5.23;51.01
29197;BME280;62796;42.654;23.316;2024-02-16T04:09:03;95134.69;;;5.14;50.78
29197;BME280;62796;42.654;23.316;2024-02-16T04:11:29;95141.19;;;5.20;50.82
29197;BME280;62796;42.654;23.316;2024-02-16T04:13:55;95141.09;;;5.24;50.89
29197;BME280;62796;42.654;23.316;2024-02-16T04:16:20;95139.13;;;5.24;51.07
29197;BME280;62796;42.654;23.316;2024-02-16T04:18:47;95125.16;;;5.19;50.67
29197;BME280;62796;42.654;23.316;2024-02-16T04:21:13;95147.59;;;5.30;50.68
29197;BME280;62796;42.654;23.316;2024-02-16T04:23:38;95141.63;;;5.19;50.82
29197;BME280;62796;42.654;23.316;2024-02-16T04:26:03;95138.66;;;5.13;50.78
29197;BME280;62796;42.654;23.316;2024-02-16T04:28:32;95137.03;;;5.16;50.94
29197;BME280;62796;42.654;23.316;2024-02-16T04:30:57;95134.91;;;5.20;50.96
29197;BME280;62796;42.654;23.316;2024-02-16T04:33:22;95139.66;;;5.19;50.92
29197;BME280;62796;42.654;23.316;2024-02-16T04:35:48;95132.94;;;5.08;51.19
29197;BME280;62796;42.654;23.316;2024-02-16T04:38:16;95140.31;;;5.11;51.40
29197;BME280;62796;42.654;23.316;2024-02-16T04:40:41;95144.16;;;5.13;51.15
29197;BME280;62796;42.654;23.316;2024-02-16T04:43:06;95150.28;;;5.17;51.12
29197;BME280;62796;42.654;23.316;2024-02-16T04:45:32;95155.47;;;5.15;51.02
29197;BME280;62796;42.654;23.316;2024-02-16T04:47:57;95148.19;;;5.09;51.15
29197;BME280;62796;42.654;23.316;2024-02-16T04:50:27;95149.75;;;5.10;51.36
29197;BME280;62796;42.654;23.316;2024-02-16T04:52:52;95141.19;;;5.08;51.28
29197;BME280;62796;42.654;23.316;2024-02-16T04:55:18;95155.22;;;5.10;51.11
29197;BME280;62796;42.654;23.316;2024-02-16T04:57:43;95157.28;;;5.06;51.29
29197;BME280;62796;42.654;23.316;2024-02-16T05:00:09;95160.91;;;5.02;51.57
29197;BME280;62796;42.654;23.316;2024-02-16T05:02:35;95157.28;;;5.06;51.36
29197;BME280;62796;42.654;23.316;2024-02-16T05:05:00;95167.94;;;5.03;51.58
29197;BME280;62796;42.654;23.316;2024-02-16T05:07:25;95166.50;;;4.99;51.71
29197;BME280;62796;42.654;23.316;2024-02-16T05:09:51;95169.69;;;4.97;51.79
29197;BME280;62796;42.654;23.316;2024-02-16T05:12:21;95174.50;;;4.93;51.67
29197;BME280;62796;42.654;23.316;2024-02-16T05:14:50;95170.75;;;4.87;51.66
29197;BME280;62796;42.654;23.316;2024-02-16T05:17:16;95170.75;;;4.87;51.92
29197;BME280;62796;42.654;23.316;2024-02-16T05:19:41;95176.38;;;4.96;51.89
29197;BME280;62796;42.654;23.316;2024-02-16T05:22:07;95175.38;;;4.90;51.91
29197;BME280;62796;42.654;23.316;2024-02-16T05:24:32;95177.69;;;4.92;52.19
29197;BME280;62796;42.654;23.316;2024-02-16T05:26:58;95183.44;;;4.81;52.40
29197;BME280;62796;42.654;23.316;2024-02-16T05:29:24;95190.81;;;4.84;52.54
29197;BME280;62796;42.654;23.316;2024-02-16T05:31:53;95191.19;;;4.86;52.42
29197;BME280;62796;42.654;23.316;2024-02-16T05:34:18;95190.31;;;4.89;52.83
29197;BME280;62796;42.654;23.316;2024-02-16T05:36:44;95193.72;;;4.93;52.75
29197;BME280;62796;42.654;23.316;2024-02-16T05:39:10;95199.88;;;4.97;52.81
29197;BME280;62796;42.654;23.316;2024-02-16T05:41:46;95192.59;;;4.91;52.68
29197;BME280;62796;42.654;23.316;2024-02-16T05:44:11;95207.25;;;5.00;52.35
29197;BME280;62796;42.654;23.316;2024-02-16T05:46:37;95202.09;;;5.02;52.54
29197;BME280;62796;42.654;23.316;2024-02-16T05:49:04;95206.22;;;5.11;52.29
29197;BME280;62796;42.654;23.316;2024-02-16T05:51:36;95211.34;;;5.09;52.43
29197;BME280;62796;42.654;23.316;2024-02-16T05:54:03;95206.22;;;5.11;52.28
29197;BME280;62796;42.654;23.316;2024-02-16T05:56:28;95200.72;;;5.11;52.19
29197;BME280;62796;42.654;23.316;2024-02-16T05:58:54;95210.38;;;5.15;51.86
29197;BME280;62796;42.654;23.316;2024-02-16T06:01:19;95198.22;;;5.16;51.99
29197;BME280;62796;42.654;23.316;2024-02-16T06:03:45;95194.44;;;5.10;51.54
29197;BME280;62796;42.654;23.316;2024-02-16T06:06:10;95205.34;;;5.14;51.48
29197;BME280;62796;42.654;23.316;2024-02-16T06:08:35;95196.88;;;5.21;51.63
29197;BME280;62796;42.654;23.316;2024-02-16T06:11:01;95211.09;;;5.32;51.41
29197;BME280;62796;42.654;23.316;2024-02-16T06:13:28;95203.66;;;5.45;51.44
29197;BME280;62796;42.654;23.316;2024-02-16T06:15:54;95208.75;;;5.59;51.13
29197;BME280;62796;42.654;23.316;2024-02-16T06:18:20;95205.47;;;5.64;51.04
29197;BME280;62796;42.654;23.316;2024-02-16T06:20:45;95206.59;;;5.79;51.04
29197;BME280;62796;42.654;23.316;2024-02-16T06:23:11;95196.50;;;6.01;50.04
29197;BME280;62796;42.654;23.316;2024-02-16T06:25:36;95223.56;;;6.28;49.75
29197;BME280;62796;42.654;23.316;2024-02-16T06:28:02;95217.19;;;6.44;49.58
29197;BME280;62796;42.654;23.316;2024-02-16T06:30:29;95217.88;;;6.69;49.07
29197;BME280;62796;42.654;23.316;2024-02-16T06:32:55;95211.66;;;6.91;48.31
29197;BME280;62796;42.654;23.316;2024-02-16T06:35:20;95207.59;;;7.17;47.92
29197;BME280;62796;42.654;23.316;2024-02-16T06:37:46;95215.84;;;7.51;47.54
29197;BME280;62796;42.654;23.316;2024-02-16T06:40:11;95213.75;;;7.86;45.40
29197;BME280;62796;42.654;23.316;2024-02-16T06:42:38;95207.16;;;8.14;45.25
29197;BME280;62796;42.654;23.316;2024-02-16T06:45:04;95201.44;;;8.40;45.37
29197;BME280;62796;42.654;23.316;2024-02-16T06:47:31;95211.22;;;8.71;44.19
29197;BME280;62796;42.654;23.316;2024-02-16T06:49:56;95217.84;;;9.01;43.35
29197;BME280;62796;42.654;23.316;2024-02-16T06:52:22;95211.72;;;9.33;43.10
29197;BME280;62796;42.654;23.316;2024-02-16T06:54:47;95211.38;;;9.68;42.09
29197;BME280;62796;42.654;23.316;2024-02-16T06:57:14;95218.25;;;9.99;41.46
29197;BME280;62796;42.654;23.316;2024-02-16T06:59:39;95212.03;;;10.32;41.12
29197;BME280;62796;42.654;23.316;2024-02-16T07:02:05;95214.16;;;10.70;40.26
29197;BME280;62796;42.654;23.316;2024-02-16T07:04:32;95208.56;;;11.02;39.23
29197;BME280;62796;42.654;23.316;2024-02-16T07:06:58;95220.34;;;11.36;38.50
29197;BME280;62796;42.654;23.316;2024-02-16T07:09:23;95220.22;;;11.68;37.40
29197;BME280;62796;42.654;23.316;2024-02-16T07:11:49;95218.84;;;12.02;36.23
29197;BME280;62796;42.654;23.316;2024-02-16T07:14:16;95217.78;;;12.29;33.90
29197;BME280;62796;42.654;23.316;2024-02-16T07:16:41;95220.75;;;12.26;34.33
29197;BME280;62796;42.654;23.316;2024-02-16T07:19:07;95205.25;;;12.19;34.13
29197;BME280;62796;42.654;23.316;2024-02-16T07:21:32;95215.19;;;12.40;33.64
29197;BME280;62796;42.654;23.316;2024-02-16T07:23:58;95213.16;;;12.55;34.00
29197;BME280;62796;42.654;23.316;2024-02-16T07:26:23;95197.25;;;12.56;34.10
29197;BME280;62796;42.654;23.316;2024-02-16T07:28:49;95198.19;;;12.67;33.56
29197;BME280;62796;42.654;23.316;2024-02-16T07:31:14;95205.63;;;12.76;33.65
29197;BME280;62796;42.654;23.316;2024-02-16T07:33:41;95202.38;;;12.77;33.33
29197;BME280;62796;42.654;23.316;2024-02-16T07:36:07;95204.00;;;12.69;33.71
29197;BME280;62796;42.654;23.316;2024-02-16T07:38:32;95212.91;;;12.73;33.68
29197;BME280;62796;42.654;23.316;2024-02-16T07:40:58;95203.44;;;13.00;33.52
29197;BME280;62796;42.654;23.316;2024-02-16T07:43:25;95197.00;;;13.29;32.52
29197;BME280;62796;42.654;23.316;2024-02-16T07:45:51;95208.09;;;13.44;31.80
29197;BME280;62796;42.654;23.316;2024-02-16T07:48:19;95209.75;;;13.81;31.63
29197;BME280;62796;42.654;23.316;2024-02-16T07:50:46;95207.78;;;14.13;30.60
29197;BME280;62796;42.654;23.316;2024-02-16T07:53:12;95215.69;;;14.46;29.69
29197;BME280;62796;42.654;23.316;2024-02-16T07:55:37;95205.84;;;13.94;30.91
29197;BME280;62796;42.654;23.316;2024-02-16T07:58:03;95213.47;;;13.99;30.98
29197;BME280;62796;42.654;23.316;2024-02-16T08:00:28;95208.50;;;14.34;31.03
29197;BME280;62796;42.654;23.316;2024-02-16T08:02:53;95212.41;;;14.79;30.05
29197;BME280;62796;42.654;23.316;2024-02-16T08:05:19;95217.41;;;15.12;29.15
29197;BME280;62796;42.654;23.316;2024-02-16T08:07:46;95219.69;;;14.14;30.22
29197;BME280;62796;42.654;23.316;2024-02-16T08:10:12;95213.16;;;14.17;30.78
29197;BME280;62796;42.654;23.316;2024-02-16T08:12:37;95217.63;;;14.09;30.47
29197;BME280;62796;42.654;23.316;2024-02-16T08:15:04;95218.00;;;13.30;32.35
29197;BME280;62796;42.654;23.316;2024-02-16T08:17:33;95227.28;;;13.88;31.51
29197;BME280;62796;42.654;23.316;2024-02-16T08:19:59;95210.91;;;14.47;30.51
29197;BME280;62796;42.654;23.316;2024-02-16T08:22:24;95216.56;;;14.94;29.97
29197;BME280;62796;42.654;23.316;2024-02-16T08:24:49;95217.72;;;15.67;29.58
29197;BME280;62796;42.654;23.316;2024-02-16T08:27:15;95214.31;;;16.39;28.05
29197;BME280;62796;42.654;23.316;2024-02-16T08:29:42;95219.16;;;16.55;27.56
29197;BME280;62796;42.654;23.316;2024-02-16T08:32:07;95218.13;;;16.91;27.09
29197;BME280;62796;42.654;23.316;2024-02-16T08:34:34;95212.69;;;17.38;26.56
29197;BME280;62796;42.654;23.316;2024-02-16T08:37:02;95212.53;;;17.82;25.88
29197;BME280;62796;42.654;23.316;2024-02-16T08:39:29;95210.66;;;18.01;25.41
29197;BME280;62796;42.654;23.316;2024-02-16T08:41:58;95211.66;;;18.04;25.39
29197;BME280;62796;42.654;23.316;2024-02-16T08:44:25;95204.41;;;18.19;24.88
29197;BME280;62796;42.654;23.316;2024-02-16T08:46:51;95211.06;;;18.16;24.96
29197;BME280;62796;42.654;23.316;2024-02-16T08:49:17;95212.94;;;18.03;24.82
29197;BME280;62796;42.654;23.316;2024-02-16T08:51:43;95209.28;;;18.13;24.96
29197;BME280;62796;42.654;23.316;2024-02-16T08:54:09;95216.03;;;18.35;24.75
29197;BME280;62796;42.654;23.316;2024-02-16T08:56:34;95220.72;;;18.62;24.53
29197;BME280;62796;42.654;23.316;2024-02-16T08:59:01;95216.31;;;18.37;24.92
29197;BME280;62796;42.654;23.316;2024-02-16T09:01:31;95206.59;;;17.97;24.47
29197;BME280;62796;42.654;23.316;2024-02-16T09:03:57;95206.38;;;17.26;25.43
29197;BME280;62796;42.654;23.316;2024-02-16T09:06:22;95221.19;;;17.04;25.64
29197;BME280;62796;42.654;23.316;2024-02-16T09:08:48;95217.84;;;16.12;27.49
29197;BME280;62796;42.654;23.316;2024-02-16T09:11:13;95217.09;;;16.39;27.01
29197;BME280;62796;42.654;23.316;2024-02-16T09:13:39;95222.47;;;16.92;27.25
29197;BME280;62796;42.654;23.316;2024-02-16T09:16:06;95224.06;;;17.67;26.22
29197;BME280;62796;42.654;23.316;2024-02-16T09:18:32;95214.72;;;18.06;25.20
29197;BME280;62796;42.654;23.316;2024-02-16T09:20:58;95218.00;;;18.51;24.49
29197;BME280;62796;42.654;23.316;2024-02-16T09:23:23;95224.16;;;18.79;24.10
29197;BME280;62796;42.654;23.316;2024-02-16T09:25:48;95216.25;;;18.01;25.12
29197;BME280;62796;42.654;23.316;2024-02-16T09:28:16;95218.91;;;18.64;24.84
29197;BME280;62796;42.654;23.316;2024-02-16T09:30:43;95217.78;;;19.08;24.09
29197;BME280;62796;42.654;23.316;2024-02-16T09:33:08;95208.44;;;19.49;23.47
29197;BME280;62796;42.654;23.316;2024-02-16T09:35:34;95219.09;;;19.74;23.46
29197;BME280;62796;42.654;23.316;2024-02-16T09:37:59;95221.50;;;19.89;22.99
29197;BME280;62796;42.654;23.316;2024-02-16T09:40:25;95216.94;;;19.86;23.19
29197;BME280;62796;42.654;23.316;2024-02-16T09:42:51;95208.41;;;20.10;22.54
29197;BME280;62796;42.654;23.316;2024-02-16T09:45:17;95201.91;;;20.39;22.11
29197;BME280;62796;42.654;23.316;2024-02-16T09:47:45;95219.69;;;20.48;21.90
29197;BME280;62796;42.654;23.316;2024-02-16T09:50:12;95219.94;;;20.81;21.56
29197;BME280;62796;42.654;23.316;2024-02-16T09:52:38;95217.09;;;20.81;21.34
29197;BME280;62796;42.654;23.316;2024-02-16T09:55:05;95212.00;;;20.80;20.98
29197;BME280;62796;42.654;23.316;2024-02-16T09:57:32;95212.00;;;20.80;21.45
29197;BME280;62796;42.654;23.316;2024-02-16T09:59:58;95208.56;;;20.87;21.21
29197;BME280;62796;42.654;23.316;2024-02-16T10:02:24;95214.00;;;20.98;21.12
29197;BME280;62796;42.654;23.316;2024-02-16T10:04:50;95204.00;;;21.16;20.85
29197;BME280;62796;42.654;23.316;2024-02-16T10:07:15;95192.09;;;20.78;21.50
29197;BME280;62796;42.654;23.316;2024-02-16T10:09:41;95203.59;;;20.93;21.25
29197;BME280;62796;42.654;23.316;2024-02-16T10:12:06;95204.69;;;20.90;21.04
29197;BME280;62796;42.654;23.316;2024-02-16T10:14:32;95192.34;;;21.06;20.93
29197;BME280;62796;42.654;23.316;2024-02-16T10:17:01;95183.31;;;21.26;20.59
29197;BME280;62796;42.654;23.316;2024-02-16T10:19:28;95182.22;;;21.42;20.61
29197;BME280;62796;42.654;23.316;2024-02-16T10:21:54;95187.78;;;21.35;20.51
29197;BME280;62796;42.654;23.316;2024-02-16T10:24:22;95185.38;;;21.52;20.37
29197;BME280;62796;42.654;23.316;2024-02-16T10:26:48;95179.19;;;21.53;19.90
29197;BME280;62796;42.654;23.316;2024-02-16T10:29:17;95183.09;;;21.64;20.10
29197;BME280;62796;42.654;23.316;2024-02-16T10:31:44;95177.00;;;21.73;19.87
29197;BME280;62796;42.654;23.316;2024-02-16T10:34:10;95170.03;;;21.87;19.64
29197;BME280;62796;42.654;23.316;2024-02-16T10:36:36;95170.03;;;21.87;19.40
29197;BME280;62796;42.654;23.316;2024-02-16T10:39:03;95168.72;;;22.14;19.53
29197;BME280;62796;42.654;23.316;2024-02-16T10:41:38;95163.59;;;22.46;19.04
29197;BME280;62796;42.654;23.316;2024-02-16T10:44:04;95153.69;;;22.32;19.21
29197;BME280;62796;42.654;23.316;2024-02-16T10:46:30;95154.69;;;22.22;19.26
29197;BME280;62796;42.654;23.316;2024-02-16T10:48:56;95156.84;;;22.49;19.05
29197;BME280;62796;42.654;23.316;2024-02-16T10:51:28;95149.19;;;22.71;18.73
29197;BME280;62796;42.654;23.316;2024-02-16T10:53:55;95157.44;;;22.69;18.39
29197;BME280;62796;42.654;23.316;2024-02-16T10:56:47;95159.69;;;22.91;18.55
29197;BME280;62796;42.654;23.316;2024-02-16T10:59:13;95156.78;;;22.76;18.73
29197;BME280;62796;42.654;23.316;2024-02-16T11:01:43;95146.72;;;22.88;18.43
29197;BME280;62796;42.654;23.316;2024-02-16T11:04:17;95139.16;;;23.11;18.23
29197;BME280;62796;42.654;23.316;2024-02-16T11:06:52;95142.91;;;23.34;17.93
29197;BME280;62796;42.654;23.316;2024-02-16T11:09:34;95138.06;;;23.42;17.67
29197;BME280;62796;42.654;23.316;2024-02-16T11:12:01;95137.59;;;23.31;17.90
29197;BME280;62796;42.654;23.316;2024-02-16T11:14:43;95135.50;;;23.52;17.76
29197;BME280;62796;42.654;23.316;2024-02-16T11:17:22;95126.91;;;23.65;17.32
29197;BME280;62796;42.654;23.316;2024-02-16T11:19:48;95130.09;;;23.61;17.32
29197;BME280;62796;42.654;23.316;2024-02-16T11:22:18;95129.56;;;23.71;17.42
29197;BME280;62796;42.654;23.316;2024-02-16T11:24:53;95120.19;;;23.83;17.15
29197;BME280;62796;42.654;23.316;2024-02-16T11:27:18;95130.56;;;22.96;18.26
29197;BME280;62796;42.654;23.316;2024-02-16T11:29:45;95109.47;;;22.97;18.15
29197;BME280;62796;42.654;23.316;2024-02-16T11:32:11;95125.03;;;23.11;17.81
29197;BME280;62796;42.654;23.316;2024-02-16T11:34:37;95114.94;;;23.23;17.79
29197;BME280;62796;42.654;23.316;2024-02-16T11:37:06;95115.13;;;23.25;17.91
29197;BME280;62796;42.654;23.316;2024-02-16T11:39:31;95112.75;;;23.37;17.72
29197;BME280;62796;42.654;23.316;2024-02-16T11:42:03;95117.22;;;23.53;17.64
29197;BME280;62796;42.654;23.316;2024-02-16T11:44:34;95112.06;;;23.80;17.72
29197;BME280;62796;42.654;23.316;2024-02-16T11:47:01;95102.47;;;23.83;17.48
29197;BME280;62796;42.654;23.316;2024-02-16T11:49:28;95106.53;;;24.10;17.17
29197;BME280;62796;42.654;23.316;2024-02-16T11:51:55;95101.28;;;24.29;16.96
29197;BME280;62796;42.654;23.316;2024-02-16T11:54:20;95101.72;;;24.48;17.12
29197;BME280;62796;42.654;23.316;2024-02-16T11:56:47;95103.78;;;24.55;16.95
29197;BME280;62796;42.654;23.316;2024-02-16T11:59:16;95104.94;;;24.67;16.69
29197;BME280;62796;42.654;23.316;2024-02-16T12:01:56;95098.53;;;24.82;16.44
29197;BME280;62796;42.654;23.316;2024-02-16T12:04:26;95094.16;;;24.58;16.54
29197;BME280;62796;42.654;23.316;2024-02-16T12:06:57;95104.19;;;24.67;16.81
29197;BME280;62796;42.654;23.316;2024-02-16T12:09:23;95093.59;;;24.52;16.76
29197;BME280;62796;42.654;23.316;2024-02-16T12:11:49;95088.63;;;23.72;17.44
29197;BME280;62796;42.654;23.316;2024-02-16T12:14:18;95081.41;;;23.27;17.91
29197;BME280;62796;42.654;23.316;2024-02-16T12:16:51;95095.56;;;23.55;17.64
29197;BME280;62796;42.654;23.316;2024-02-16T12:19:21;95081.00;;;23.95;17.46
29197;BME280;62796;42.654;23.316;2024-02-16T12:21:54;95082.63;;;24.34;17.06
29197;BME280;62796;42.654;23.316;2024-02-16T12:24:22;95089.44;;;24.53;16.67
29197;BME280;62796;42.654;23.316;2024-02-16T12:26:48;95084.72;;;24.71;16.75
29197;BME280;62796;42.654;23.316;2024-02-16T12:29:14;95083.25;;;24.93;16.54
29197;BME280;62796;42.654;23.316;2024-02-16T12:31:45;95075.47;;;24.70;16.75
29197;BME280;62796;42.654;23.316;2024-02-16T12:34:11;95080.03;;;25.04;16.31
29197;BME280;62796;42.654;23.316;2024-02-16T12:36:38;95073.16;;;25.37;16.06
29197;BME280;62796;42.654;23.316;2024-02-16T12:39:07;95068.19;;;25.60;15.94
29197;BME280;62796;42.654;23.316;2024-02-16T12:41:34;95056.72;;;25.91;16.03
29197;BME280;62796;42.654;23.316;2024-02-16T12:43:59;95067.00;;;25.78;15.64
29197;BME280;62796;42.654;23.316;2024-02-16T12:46:25;95053.19;;;25.75;15.43
29197;BME280;62796;42.654;23.316;2024-02-16T12:48:51;95056.19;;;25.84;15.66
29197;BME280;62796;42.654;23.316;2024-02-16T12:51:17;95064.00;;;25.69;15.83